»·PEaware :: DAL2460 KBZN-KSLC

DAL2460 :: KBZN-KSLC

FLIGHT INFORMATION

Flight Status: Arrived
Operator:
Delta Air Lines
More flights by this operator :: More flights under this callsign
Pilot: Max W. (2591)
Aircraft: BOEING 757-200
(B752)
More flights by this aircraft type
Origin: KBZN Gallatin
United States
Destination: KSLC Salt Lake City Intl
United States
More flights between these airports :: More routes between these airports
Route: +TEERX4 DBS NORDK6
File this flight plan on PilotEdge
Remarks:
Altitude:
(Current/Filed)
30,000ft
Speed:
(Current/Filed)
430kts
Departed: 16-Oct-19 11:53 AM
Arrived: 16-Oct-19 12:47 PM
Distance/Time
Traveled:
301nm/0:54
Distance/Time
To Go:
Arrived

Flight Plot

Page will automatically refresh every two minutes.

Flight plan parsing failed; only flown route is shown


Map Options




Map Legend


Flown Route
Filed Route
Departure Airport
Arrival Airport
Navaid (VOR, NDB)
Fix

Horizontal Profiles

Position Reports

Time Latitude Longitude Heading Altitude Ground
Speed
16-Oct-19 11:23 45.779056 -111.160208 225 4441ft 0kts
16-Oct-19 11:24 45.779056 -111.160208 225 4441ft 0kts
16-Oct-19 11:25 45.779056 -111.160208 225 4441ft 0kts
16-Oct-19 11:26 45.779056 -111.160208 225 4441ft 0kts
16-Oct-19 11:27 45.779056 -111.160208 225 4441ft 0kts
16-Oct-19 11:28 45.779056 -111.160208 225 4441ft 0kts
16-Oct-19 11:29 45.779056 -111.160208 225 4441ft 0kts
16-Oct-19 11:30 45.779056 -111.160208 225 4441ft 0kts
16-Oct-19 11:31 45.779056 -111.160208 225 4441ft 0kts
16-Oct-19 11:32 45.779056 -111.160208 225 4441ft 0kts
16-Oct-19 11:33 45.779056 -111.160208 225 4441ft 0kts
16-Oct-19 11:34 45.779056 -111.160208 225 4441ft 0kts
16-Oct-19 11:35 45.779056 -111.160208 225 4441ft 0kts
16-Oct-19 11:36 45.779056 -111.160208 225 4441ft 0kts
16-Oct-19 11:37 45.779056 -111.160208 225 4441ft 0kts
16-Oct-19 11:38 45.779056 -111.160208 225 4441ft 0kts
16-Oct-19 11:39 45.779056 -111.160208 225 4441ft 0kts
16-Oct-19 11:40 45.779056 -111.160207 225 4441ft 0kts
16-Oct-19 11:41 45.779376 -111.160386 137 4441ft 2kts
16-Oct-19 11:42 45.779815 -111.160974 136 4441ft 2kts
16-Oct-19 11:43 45.779874 -111.161055 136 4441ft 0kts
16-Oct-19 11:44 45.779874 -111.161055 136 4441ft 0kts
16-Oct-19 11:46 45.779874 -111.161055 136 4441ft 0kts
16-Oct-19 11:47 45.779874 -111.161055 136 4441ft 0kts
16-Oct-19 11:48 45.779874 -111.161055 136 4441ft 0kts
16-Oct-19 11:49 45.779874 -111.161055 136 4441ft 0kts
16-Oct-19 11:50 45.781066 -111.160845 317 4441ft 9kts
16-Oct-19 11:51 45.784611 -111.165744 315 4441ft 17kts
16-Oct-19 11:52 45.787643 -111.166971 48 4441ft 14kts
16-Oct-19 11:53 45.771853 -111.143906 134 4449ft 175kts
16-Oct-19 11:54 45.727276 -111.135024 241 5849ft 214kts
16-Oct-19 11:55 45.700296 -111.224649 278 6944ft 261kts
16-Oct-19 11:56 45.671624 -111.304845 196 10544ft 288kts
16-Oct-19 11:57 45.586360 -111.321002 196 12820ft 309kts
16-Oct-19 11:58 45.509385 -111.356317 209 15432ft 294kts
16-Oct-19 11:59 45.433548 -111.402664 209 17089ft 298kts
16-Oct-19 12:00 45.356223 -111.450146 209 18068ft 305kts
16-Oct-19 12:01 45.277866 -111.498159 209 19477ft 313kts
16-Oct-19 12:02 45.197913 -111.546990 209 20821ft 316kts
16-Oct-19 12:02 45.130000 -111.588356 209 21840ft 321kts
16-Oct-19 12:04 45.023253 -111.602169 190 23627ft 337kts
16-Oct-19 12:05 44.929202 -111.611696 191 25450ft 344kts
16-Oct-19 12:06 44.835549 -111.622243 191 26051ft 360kts
16-Oct-19 12:06 44.750271 -111.631922 190 26138ft 385kts
16-Oct-19 12:07 44.636725 -111.644739 190 26158ft 424kts
16-Oct-19 12:09 44.501810 -111.659892 189 26189ft 448kts
16-Oct-19 12:09 44.397654 -111.671500 189 26190ft 450kts
16-Oct-19 12:10 44.273384 -111.685335 189 26185ft 450kts
16-Oct-19 12:11 44.148805 -111.699159 189 26184ft 450kts
16-Oct-19 12:13 44.003569 -111.715207 189 26183ft 450kts
16-Oct-19 12:13 43.900065 -111.726594 189 26183ft 450kts
16-Oct-19 12:14 43.780745 -111.739678 189 26187ft 450kts
16-Oct-19 12:15 43.656020 -111.753295 189 26187ft 450kts
16-Oct-19 12:16 43.531636 -111.766816 189 26191ft 450kts
16-Oct-19 12:17 43.412433 -111.779723 189 26193ft 449kts
16-Oct-19 12:18 43.288158 -111.793124 189 26193ft 449kts
16-Oct-19 12:19 43.163766 -111.806485 189 26193ft 449kts
16-Oct-19 12:20 43.038881 -111.819841 189 26192ft 449kts
16-Oct-19 12:21 42.914052 -111.833157 188 26192ft 452kts
16-Oct-19 12:22 42.794638 -111.845816 188 26183ft 453kts
16-Oct-19 12:23 42.668999 -111.860847 191 26178ft 452kts
16-Oct-19 12:24 42.544385 -111.882444 191 26211ft 451kts
16-Oct-19 12:25 42.420009 -111.903746 191 26213ft 451kts
16-Oct-19 12:26 42.296894 -111.924713 191 24590ft 439kts
16-Oct-19 12:27 42.176892 -111.945094 190 22961ft 430kts
16-Oct-19 12:28 42.059862 -111.964891 190 21357ft 420kts
16-Oct-19 12:29 41.945607 -111.984145 190 19786ft 411kts
16-Oct-19 12:30 41.847222 -112.000670 190 18431ft 404kts
16-Oct-19 12:31 41.737513 -112.018455 189 17604ft 391kts
16-Oct-19 12:32 41.636528 -112.034200 189 15759ft 334kts
16-Oct-19 12:33 41.551141 -112.047651 190 14309ft 308kts
16-Oct-19 12:34 41.467938 -112.054556 178 13196ft 293kts
16-Oct-19 12:35 41.387958 -112.045151 178 12194ft 288kts
16-Oct-19 12:36 41.313409 -112.036209 179 11998ft 245kts
16-Oct-19 12:37 41.245723 -112.028275 178 11103ft 241kts
16-Oct-19 12:38 41.179780 -112.020473 178 11046ft 235kts
16-Oct-19 12:39 41.117791 -111.993324 185 10412ft 233kts
16-Oct-19 12:40 41.053601 -112.001412 182 9188ft 231kts
16-Oct-19 12:41 40.989714 -111.997608 178 7902ft 229kts
16-Oct-19 12:42 40.933923 -111.991522 177 6794ft 164kts
16-Oct-19 12:43 40.891401 -111.986672 177 5928ft 161kts
16-Oct-19 12:44 40.847051 -111.981383 176 5055ft 158kts
16-Oct-19 12:45 40.804048 -111.976530 171 4241ft 145kts
16-Oct-19 12:46 40.789694 -111.978078 236 4238ft 9kts
16-Oct-19 12:47 40.789316 -111.978320 190 4238ft 0kts
16-Oct-19 12:48 40.789316 -111.978320 190 4238ft 0kts
16-Oct-19 12:49 40.789316 -111.978320 190 4238ft 0kts
16-Oct-19 12:50 40.789316 -111.978320 190 4238ft 0kts
16-Oct-19 12:51 40.789316 -111.978320 190 4238ft 0kts
16-Oct-19 12:52 40.789316 -111.978320 190 4238ft 0kts
16-Oct-19 12:53 40.789316 -111.978320 190 4238ft 0kts
16-Oct-19 12:54 40.789316 -111.978320 190 4238ft 0kts
16-Oct-19 12:55 40.789316 -111.978320 190 4238ft 0kts
16-Oct-19 12:56 40.789316 -111.978320 190 4238ft 0kts

Navigation Log

Ident Type
Flight plan parsing failed, navigation log unavailable